sensor_id;sensor_type;location;lat;lon;timestamp;P1;P2;P0
73825;PMS5003;64145;55.060;73.168;2023-02-28T00:00:49;5.00;4.00;1.00
73825;PMS5003;64145;55.060;73.168;2023-02-28T00:03:15;6.00;5.00;1.33
73825;PMS5003;64145;55.060;73.168;2023-02-28T00:05:40;6.00;6.00;1.67
73825;PMS5003;64145;55.060;73.168;2023-02-28T00:08:06;5.00;3.75;3.00
73825;PMS5003;64145;55.060;73.168;2023-02-28T00:10:33;6.00;5.00;3.00
73825;PMS5003;64145;55.060;73.168;2023-02-28T00:13:09;6.00;5.00;3.00
73825;PMS5003;64145;55.060;73.168;2023-02-28T00:15:36;4.00;4.00;2.00
73825;PMS5003;64145;55.060;73.168;2023-02-28T00:18:05;6.00;4.00;2.00
73825;PMS5003;64145;55.060;73.168;2023-02-28T00:20:35;6.00;5.00;3.00
73825;PMS5003;64145;55.060;73.168;2023-02-28T00:23:06;6.00;4.00;1.00
73825;PMS5003;64145;55.060;73.168;2023-02-28T00:25:41;5.75;5.00;3.00
73825;PMS5003;64145;55.060;73.168;2023-02-28T00:28:12;5.00;4.00;1.75
73825;PMS5003;64145;55.060;73.168;2023-02-28T00:30:38;4.00;4.00;2.00
73825;PMS5003;64145;55.060;73.168;2023-02-28T00:33:08;6.00;6.00;2.00
73825;PMS5003;64145;55.060;73.168;2023-02-28T00:35:39;6.00;5.25;2.00
73825;PMS5003;64145;55.060;73.168;2023-02-28T00:38:14;6.00;5.75;3.00
73825;PMS5003;64145;55.060;73.168;2023-02-28T00:40:40;5.00;5.00;2.00
73825;PMS5003;64145;55.060;73.168;2023-02-28T00:43:05;3.00;3.00;1.00
73825;PMS5003;64145;55.060;73.168;2023-02-28T00:45:41;6.00;6.00;2.00
73825;PMS5003;64145;55.060;73.168;2023-02-28T00:48:06;6.00;6.00;2.00
73825;PMS5003;64145;55.060;73.168;2023-02-28T00:50:36;3.00;2.00;0.00
73825;PMS5003;64145;55.060;73.168;2023-02-28T00:53:02;4.67;4.67;1.00
73825;PMS5003;64145;55.060;73.168;2023-02-28T00:55:37;6.25;6.00;2.00
73825;PMS5003;64145;55.060;73.168;2023-02-28T00:58:03;5.00;5.00;2.00
73825;PMS5003;64145;55.060;73.168;2023-02-28T01:00:38;6.00;4.75;3.00
73825;PMS5003;64145;55.060;73.168;2023-02-28T01:03:14;6.00;5.25;3.00
73825;PMS5003;64145;55.060;73.168;2023-02-28T01:05:40;4.00;4.00;3.00
73825;PMS5003;64145;55.060;73.168;2023-02-28T01:08:06;6.00;5.00;3.00
73825;PMS5003;64145;55.060;73.168;2023-02-28T01:10:32;6.00;6.00;2.33
73825;PMS5003;64145;55.060;73.168;2023-02-28T01:13:07;3.00;3.00;1.25
73825;PMS5003;64145;55.060;73.168;2023-02-28T01:15:33;4.00;4.00;2.00
73825;PMS5003;64145;55.060;73.168;2023-02-28T01:18:08;4.75;4.00;1.00
73825;PMS5003;64145;55.060;73.168;2023-02-28T01:20:38;3.00;3.00;2.00
73825;PMS5003;64145;55.060;73.168;2023-02-28T01:23:04;6.00;5.00;3.00
73825;PMS5003;64145;55.060;73.168;2023-02-28T01:25:29;4.33;3.67;2.00
73825;PMS5003;64145;55.060;73.168;2023-02-28T01:27:55;6.00;5.00;3.00
73825;PMS5003;64145;55.060;73.168;2023-02-28T01:30:31;6.00;6.00;3.00
73825;PMS5003;64145;55.060;73.168;2023-02-28T01:32:58;5.25;4.25;2.00
73825;PMS5003;64145;55.060;73.168;2023-02-28T01:35:24;6.00;5.75;3.00
73825;PMS5003;64145;55.060;73.168;2023-02-28T01:37:50;5.00;5.00;3.00
73825;PMS5003;64145;55.060;73.168;2023-02-28T01:40:15;3.00;3.00;1.33
73825;PMS5003;64145;55.060;73.168;2023-02-28T01:42:51;6.00;5.00;3.00
73825;PMS5003;64145;55.060;73.168;2023-02-28T01:47:48;5.00;4.67;3.00
73825;PMS5003;64145;55.060;73.168;2023-02-28T01:50:17;6.00;5.00;3.00
73825;PMS5003;64145;55.060;73.168;2023-02-28T01:52:45;5.50;4.50;2.00
73825;PMS5003;64145;55.060;73.168;2023-02-28T01:55:12;6.00;4.50;3.00
73825;PMS5003;64145;55.060;73.168;2023-02-28T01:57:39;6.00;6.00;3.00
73825;PMS5003;64145;55.060;73.168;2023-02-28T02:00:12;6.00;6.00;3.00
73825;PMS5003;64145;55.060;73.168;2023-02-28T02:02:40;5.25;3.50;1.00
73825;PMS5003;64145;55.060;73.168;2023-02-28T02:05:07;6.00;4.00;2.00
73825;PMS5003;64145;55.060;73.168;2023-02-28T02:07:44;5.00;4.00;1.00
73825;PMS5003;64145;55.060;73.168;2023-02-28T02:10:12;4.50;4.25;1.00
73825;PMS5003;64145;55.060;73.168;2023-02-28T02:15:36;4.00;4.00;1.00
73825;PMS5003;64145;55.060;73.168;2023-02-28T02:23:25;4.00;3.67;0.00
73825;PMS5003;64145;55.060;73.168;2023-02-28T02:25:56;5.00;5.00;1.00
73825;PMS5003;64145;55.060;73.168;2023-02-28T02:31:20;4.00;3.00;1.00
73825;PMS5003;64145;55.060;73.168;2023-02-28T02:36:42;2.75;2.00;0.00
73825;PMS5003;64145;55.060;73.168;2023-02-28T02:39:16;5.50;4.00;2.00
73825;PMS5003;64145;55.060;73.168;2023-02-28T02:41:52;4.75;4.50;2.00
73825;PMS5003;64145;55.060;73.168;2023-02-28T02:44:36;4.00;3.00;0.00
73825;PMS5003;64145;55.060;73.168;2023-02-28T02:47:16;3.00;3.00;0.00
73825;PMS5003;64145;55.060;73.168;2023-02-28T02:49:47;1.50;0.50;0.00
73825;PMS5003;64145;55.060;73.168;2023-02-28T02:52:14;3.00;3.00;0.00
73825;PMS5003;64145;55.060;73.168;2023-02-28T02:54:48;2.00;2.00;0.00
73825;PMS5003;64145;55.060;73.168;2023-02-28T02:57:17;4.50;4.50;0.00
73825;PMS5003;64145;55.060;73.168;2023-02-28T02:59:50;3.00;3.00;1.00
73825;PMS5003;64145;55.060;73.168;2023-02-28T03:02:17;4.25;3.75;1.00
73825;PMS5003;64145;55.060;73.168;2023-02-28T03:04:45;4.00;3.00;1.00
73825;PMS5003;64145;55.060;73.168;2023-02-28T03:07:13;3.00;3.00;0.00
73825;PMS5003;64145;55.060;73.168;2023-02-28T03:09:39;3.00;3.00;0.00
73825;PMS5003;64145;55.060;73.168;2023-02-28T03:12:11;4.00;4.00;1.00
73825;PMS5003;64145;55.060;73.168;2023-02-28T03:20:07;3.00;2.00;0.00
73825;PMS5003;64145;55.060;73.168;2023-02-28T03:28:23;4.00;4.00;1.00
73825;PMS5003;64145;55.060;73.168;2023-02-28T03:36:02;0.25;0.00;0.00
73825;PMS5003;64145;55.060;73.168;2023-02-28T03:38:34;1.00;1.00;0.00
73825;PMS5003;64145;55.060;73.168;2023-02-28T03:43:46;3.00;2.00;0.00
73825;PMS5003;64145;55.060;73.168;2023-02-28T03:46:24;3.00;3.00;0.00
73825;PMS5003;64145;55.060;73.168;2023-02-28T03:48:54;4.25;4.25;0.00
73825;PMS5003;64145;55.060;73.168;2023-02-28T03:51:21;5.00;3.50;0.00
73825;PMS5003;64145;55.060;73.168;2023-02-28T03:53:59;4.25;3.00;0.00
73825;PMS5003;64145;55.060;73.168;2023-02-28T03:56:29;4.00;4.00;0.00
73825;PMS5003;64145;55.060;73.168;2023-02-28T03:59:02;3.00;3.00;0.00
73825;PMS5003;64145;55.060;73.168;2023-02-28T04:01:39;4.75;4.00;0.00
73825;PMS5003;64145;55.060;73.168;2023-02-28T04:04:16;4.75;3.50;0.00
73825;PMS5003;64145;55.060;73.168;2023-02-28T04:06:45;5.25;3.00;0.00
73825;PMS5003;64145;55.060;73.168;2023-02-28T04:09:12;3.00;2.67;0.00
73825;PMS5003;64145;55.060;73.168;2023-02-28T04:11:44;3.00;3.00;0.00
73825;PMS5003;64145;55.060;73.168;2023-02-28T04:14:21;3.00;3.00;0.50
73825;PMS5003;64145;55.060;73.168;2023-02-28T04:16:56;4.00;4.00;1.00
73825;PMS5003;64145;55.060;73.168;2023-02-28T04:19:22;4.00;3.00;0.00
73825;PMS5003;64145;55.060;73.168;2023-02-28T04:21:53;3.00;2.75;1.00
73825;PMS5003;64145;55.060;73.168;2023-02-28T04:24:25;1.75;1.00;0.00
73825;PMS5003;64145;55.060;73.168;2023-02-28T04:26:53;0.25;0.00;0.00
73825;PMS5003;64145;55.060;73.168;2023-02-28T04:29:30;3.00;3.00;0.00
73825;PMS5003;64145;55.060;73.168;2023-02-28T04:32:03;3.00;3.00;0.00
73825;PMS5003;64145;55.060;73.168;2023-02-28T04:34:35;5.50;5.00;1.00
73825;PMS5003;64145;55.060;73.168;2023-02-28T04:37:00;5.00;5.00;1.33
73825;PMS5003;64145;55.060;73.168;2023-02-28T04:39:26;3.00;3.00;1.00
73825;PMS5003;64145;55.060;73.168;2023-02-28T04:41:52;3.00;2.00;1.33
73825;PMS5003;64145;55.060;73.168;2023-02-28T04:44:17;3.00;3.00;1.00
73825;PMS5003;64145;55.060;73.168;2023-02-28T04:46:43;3.00;3.00;0.00
73825;PMS5003;64145;55.060;73.168;2023-02-28T04:49:12;3.00;2.75;0.00
73825;PMS5003;64145;55.060;73.168;2023-02-28T04:51:43;2.00;2.00;0.00
73825;PMS5003;64145;55.060;73.168;2023-02-28T04:54:09;2.33;2.33;0.33
73825;PMS5003;64145;55.060;73.168;2023-02-28T04:56:35;2.33;2.33;0.00
73825;PMS5003;64145;55.060;73.168;2023-02-28T04:59:00;2.00;2.00;0.00
73825;PMS5003;64145;55.060;73.168;2023-02-28T05:01:33;2.00;2.00;0.00
73825;PMS5003;64145;55.060;73.168;2023-02-28T05:04:09;2.25;2.00;0.00
73825;PMS5003;64145;55.060;73.168;2023-02-28T05:06:34;1.00;1.00;0.00
73825;PMS5003;64145;55.060;73.168;2023-02-28T05:09:00;3.00;2.67;0.00
73825;PMS5003;64145;55.060;73.168;2023-02-28T05:11:36;3.00;3.00;0.50
73825;PMS5003;64145;55.060;73.168;2023-02-28T05:14:04;2.75;2.00;0.00
73825;PMS5003;64145;55.060;73.168;2023-02-28T05:16:30;2.25;2.00;0.00
73825;PMS5003;64145;55.060;73.168;2023-02-28T05:18:56;2.75;2.75;0.00
73825;PMS5003;64145;55.060;73.168;2023-02-28T05:21:23;2.00;1.67;0.00
73825;PMS5003;64145;55.060;73.168;2023-02-28T05:23:55;2.25;1.75;0.00
73825;PMS5003;64145;55.060;73.168;2023-02-28T05:26:21;3.00;3.00;0.00
73825;PMS5003;64145;55.060;73.168;2023-02-28T05:28:47;3.75;3.50;0.50
73825;PMS5003;64145;55.060;73.168;2023-02-28T05:31:13;3.33;3.00;0.33
73825;PMS5003;64145;55.060;73.168;2023-02-28T05:33:38;3.00;3.00;0.00
73825;PMS5003;64145;55.060;73.168;2023-02-28T05:36:14;5.50;4.25;0.00
73825;PMS5003;64145;55.060;73.168;2023-02-28T05:38:40;3.00;3.00;0.00
73825;PMS5003;64145;55.060;73.168;2023-02-28T05:41:06;2.67;2.67;0.00
73825;PMS5003;64145;55.060;73.168;2023-02-28T05:43:32;2.50;2.50;0.00
73825;PMS5003;64145;55.060;73.168;2023-02-28T05:45:57;3.33;3.00;0.00
73825;PMS5003;64145;55.060;73.168;2023-02-28T05:48:28;4.00;4.00;0.00
73825;PMS5003;64145;55.060;73.168;2023-02-28T05:51:04;4.50;4.00;0.00
73825;PMS5003;64145;55.060;73.168;2023-02-28T05:53:34;5.00;5.00;1.00
73825;PMS5003;64145;55.060;73.168;2023-02-28T05:56:00;5.00;3.00;0.00
73825;PMS5003;64145;55.060;73.168;2023-02-28T05:58:28;4.00;4.00;0.00
73825;PMS5003;64145;55.060;73.168;2023-02-28T06:00:56;4.00;4.00;0.25
73825;PMS5003;64145;55.060;73.168;2023-02-28T06:03:27;5.75;4.50;1.00
73825;PMS5003;64145;55.060;73.168;2023-02-28T06:05:57;4.25;4.25;1.00
73825;PMS5003;64145;55.060;73.168;2023-02-28T06:08:22;4.00;4.00;0.00
73825;PMS5003;64145;55.060;73.168;2023-02-28T06:10:48;5.00;3.00;1.00
73825;PMS5003;64145;55.060;73.168;2023-02-28T06:13:24;4.50;3.00;1.00
73825;PMS5003;64145;55.060;73.168;2023-02-28T06:16:00;4.00;3.00;2.00
73825;PMS5003;64145;55.060;73.168;2023-02-28T06:18:26;3.25;3.25;2.00
73825;PMS5003;64145;55.060;73.168;2023-02-28T06:20:56;4.00;3.50;1.25
73825;PMS5003;64145;55.060;73.168;2023-02-28T06:23:22;4.00;4.00;1.00
73825;PMS5003;64145;55.060;73.168;2023-02-28T06:25:47;4.67;4.33;1.00
73825;PMS5003;64145;55.060;73.168;2023-02-28T06:28:14;3.50;3.00;0.00
73825;PMS5003;64145;55.060;73.168;2023-02-28T06:30:40;7.00;4.00;0.00
73825;PMS5003;64145;55.060;73.168;2023-02-28T06:33:05;5.00;4.00;1.00
73825;PMS5003;64145;55.060;73.168;2023-02-28T06:35:36;6.00;6.00;2.00
73825;PMS5003;64145;55.060;73.168;2023-02-28T06:38:05;5.25;5.25;2.00
73825;PMS5003;64145;55.060;73.168;2023-02-28T06:40:30;5.00;5.00;1.00
73825;PMS5003;64145;55.060;73.168;2023-02-28T06:42:59;5.00;3.00;1.00
73825;PMS5003;64145;55.060;73.168;2023-02-28T06:45:24;6.00;5.00;2.00
73825;PMS5003;64145;55.060;73.168;2023-02-28T06:47:56;7.00;5.25;2.00
73825;PMS5003;64145;55.060;73.168;2023-02-28T06:50:23;7.00;5.25;1.00
73825;PMS5003;64145;55.060;73.168;2023-02-28T06:52:58;5.75;4.00;2.00
73825;PMS5003;64145;55.060;73.168;2023-02-28T06:55:34;6.00;5.50;2.50
73825;PMS5003;64145;55.060;73.168;2023-02-28T06:58:00;5.00;5.00;3.00
73825;PMS5003;64145;55.060;73.168;2023-02-28T07:00:25;5.00;5.00;3.00
73825;PMS5003;64145;55.060;73.168;2023-02-28T07:02:51;5.00;5.00;3.00
73825;PMS5003;64145;55.060;73.168;2023-02-28T07:05:21;5.00;4.00;1.00
73825;PMS5003;64145;55.060;73.168;2023-02-28T07:07:47;3.67;3.67;1.00
73825;PMS5003;64145;55.060;73.168;2023-02-28T07:10:13;3.33;3.00;0.00
73825;PMS5003;64145;55.060;73.168;2023-02-28T07:12:41;6.25;5.00;3.00
73825;PMS5003;64145;55.060;73.168;2023-02-28T07:15:08;4.00;4.00;2.00
73825;PMS5003;64145;55.060;73.168;2023-02-28T07:17:34;5.25;4.75;2.00
73825;PMS5003;64145;55.060;73.168;2023-02-28T07:20:00;5.33;4.33;1.00
73825;PMS5003;64145;55.060;73.168;2023-02-28T07:22:35;4.00;4.00;1.00
73825;PMS5003;64145;55.060;73.168;2023-02-28T07:25:01;5.00;5.00;3.00
73825;PMS5003;64145;55.060;73.168;2023-02-28T07:27:36;6.25;5.25;3.00
73825;PMS5003;64145;55.060;73.168;2023-02-28T07:30:02;4.33;4.00;2.00
73825;PMS5003;64145;55.060;73.168;2023-02-28T07:32:28;7.00;6.00;3.00
73825;PMS5003;64145;55.060;73.168;2023-02-28T07:34:54;5.00;5.00;2.00
73825;PMS5003;64145;55.060;73.168;2023-02-28T07:37:25;4.50;4.00;1.00
73825;PMS5003;64145;55.060;73.168;2023-02-28T07:39:57;3.00;3.00;0.00
73825;PMS5003;64145;55.060;73.168;2023-02-28T07:42:22;6.33;4.33;1.00
73825;PMS5003;64145;55.060;73.168;2023-02-28T07:44:53;5.00;5.00;1.00
73825;PMS5003;64145;55.060;73.168;2023-02-28T07:47:19;7.00;5.00;2.00
73825;PMS5003;64145;55.060;73.168;2023-02-28T07:49:45;5.00;5.00;1.00
73825;PMS5003;64145;55.060;73.168;2023-02-28T07:52:16;7.00;5.00;1.00
73825;PMS5003;64145;55.060;73.168;2023-02-28T07:54:51;5.00;5.00;1.25
73825;PMS5003;64145;55.060;73.168;2023-02-28T07:57:26;4.25;4.25;2.75
73825;PMS5003;64145;55.060;73.168;2023-02-28T07:59:52;5.33;4.00;2.00
73825;PMS5003;64145;55.060;73.168;2023-02-28T08:02:27;7.00;7.00;2.00
73825;PMS5003;64145;55.060;73.168;2023-02-28T08:04:53;6.00;6.00;2.00
73825;PMS5003;64145;55.060;73.168;2023-02-28T08:07:19;5.00;5.00;3.00
73825;PMS5003;64145;55.060;73.168;2023-02-28T08:09:44;6.00;6.00;3.00
73825;PMS5003;64145;55.060;73.168;2023-02-28T08:12:10;4.00;4.00;1.00
73825;PMS5003;64145;55.060;73.168;2023-02-28T08:14:46;5.25;4.25;1.00
73825;PMS5003;64145;55.060;73.168;2023-02-28T08:17:12;6.00;5.00;3.00
73825;PMS5003;64145;55.060;73.168;2023-02-28T08:19:45;5.75;4.50;3.00
73825;PMS5003;64145;55.060;73.168;2023-02-28T08:22:16;5.00;4.00;2.00
73825;PMS5003;64145;55.060;73.168;2023-02-28T08:24:42;5.00;4.00;1.00
73825;PMS5003;64145;55.060;73.168;2023-02-28T08:27:09;4.25;4.25;3.00
73825;PMS5003;64145;55.060;73.168;2023-02-28T08:29:36;6.00;6.00;3.00
73825;PMS5003;64145;55.060;73.168;2023-02-28T08:32:02;5.50;4.50;3.00
73825;PMS5003;64145;55.060;73.168;2023-02-28T08:34:27;7.00;5.00;3.00
73825;PMS5003;64145;55.060;73.168;2023-02-28T08:36:58;7.00;6.75;2.00
73825;PMS5003;64145;55.060;73.168;2023-02-28T08:39:24;6.00;3.00;2.00
73825;PMS5003;64145;55.060;73.168;2023-02-28T08:41:49;7.00;4.33;2.00
73825;PMS5003;64145;55.060;73.168;2023-02-28T08:44:15;7.00;6.00;3.00
73825;PMS5003;64145;55.060;73.168;2023-02-28T08:46:40;7.00;6.00;2.67
73825;PMS5003;64145;55.060;73.168;2023-02-28T08:49:06;3.00;3.00;2.00
73825;PMS5003;64145;55.060;73.168;2023-02-28T08:51:32;6.00;6.00;3.00
73825;PMS5003;64145;55.060;73.168;2023-02-28T08:53:59;5.00;4.00;3.00
73825;PMS5003;64145;55.060;73.168;2023-02-28T08:56:35;7.00;7.00;3.00
73825;PMS5003;64145;55.060;73.168;2023-02-28T08:59:11;7.00;5.75;3.00
73825;PMS5003;64145;55.060;73.168;2023-02-28T09:01:37;6.00;6.00;3.00
73825;PMS5003;64145;55.060;73.168;2023-02-28T09:04:02;5.00;5.00;2.00
73825;PMS5003;64145;55.060;73.168;2023-02-28T09:06:38;5.50;5.50;3.00
73825;PMS5003;64145;55.060;73.168;2023-02-28T09:09:04;5.00;5.00;2.00
73825;PMS5003;64145;55.060;73.168;2023-02-28T09:11:31;6.50;6.00;3.00
73825;PMS5003;64145;55.060;73.168;2023-02-28T09:14:07;6.00;6.00;1.25
73825;PMS5003;64145;55.060;73.168;2023-02-28T09:16:33;5.00;5.00;1.00
73825;PMS5003;64145;55.060;73.168;2023-02-28T09:18:58;7.33;7.00;1.00
73825;PMS5003;64145;55.060;73.168;2023-02-28T09:21:30;6.00;4.75;2.50
73825;PMS5003;64145;55.060;73.168;2023-02-28T09:24:06;7.75;7.00;3.00
73825;PMS5003;64145;55.060;73.168;2023-02-28T09:26:31;8.33;6.00;3.00
73825;PMS5003;64145;55.060;73.168;2023-02-28T09:28:57;7.00;7.00;3.00
73825;PMS5003;64145;55.060;73.168;2023-02-28T09:31:34;7.00;6.00;3.00
73825;PMS5003;64145;55.060;73.168;2023-02-28T09:33:59;7.67;7.00;3.00
73825;PMS5003;64145;55.060;73.168;2023-02-28T09:36:26;5.50;5.00;3.00
73825;PMS5003;64145;55.060;73.168;2023-02-28T09:38:58;6.50;5.50;2.00
73825;PMS5003;64145;55.060;73.168;2023-02-28T09:41:26;7.00;7.00;3.00
73825;PMS5003;64145;55.060;73.168;2023-02-28T09:43:57;7.00;7.00;3.00
73825;PMS5003;64145;55.060;73.168;2023-02-28T09:49:00;8.25;6.50;2.75
73825;PMS5003;64145;55.060;73.168;2023-02-28T09:51:34;9.75;7.00;2.25
73825;PMS5003;64145;55.060;73.168;2023-02-28T09:54:03;9.25;7.50;3.25
73825;PMS5003;64145;55.060;73.168;2023-02-28T09:56:33;7.00;7.00;4.00
73825;PMS5003;64145;55.060;73.168;2023-02-28T10:04:52;6.25;6.00;2.00
73825;PMS5003;64145;55.060;73.168;2023-02-28T10:07:37;7.00;7.00;2.00
73825;PMS5003;64145;55.060;73.168;2023-02-28T10:12:49;7.00;7.00;3.00
73825;PMS5003;64145;55.060;73.168;2023-02-28T10:15:23;11.00;8.00;3.00
73825;PMS5003;64145;55.060;73.168;2023-02-28T10:17:53;7.00;6.50;3.00
73825;PMS5003;64145;55.060;73.168;2023-02-28T10:20:20;9.00;8.00;3.00
73825;PMS5003;64145;55.060;73.168;2023-02-28T10:22:53;8.00;7.50;4.00
73825;PMS5003;64145;55.060;73.168;2023-02-28T10:25:30;8.00;8.00;4.00
73825;PMS5003;64145;55.060;73.168;2023-02-28T10:28:13;9.75;7.50;3.75
73825;PMS5003;64145;55.060;73.168;2023-02-28T10:30:41;13.25;11.00;5.00
73825;PMS5003;64145;55.060;73.168;2023-02-28T10:33:11;12.00;11.00;3.75
73825;PMS5003;64145;55.060;73.168;2023-02-28T10:35:41;7.50;7.50;2.50
73825;PMS5003;64145;55.060;73.168;2023-02-28T10:38:10;8.00;7.00;3.50
73825;PMS5003;64145;55.060;73.168;2023-02-28T10:40:45;7.50;7.50;3.50
73825;PMS5003;64145;55.060;73.168;2023-02-28T10:43:18;9.00;6.33;2.00
73825;PMS5003;64145;55.060;73.168;2023-02-28T10:45:55;8.00;6.00;3.00
73825;PMS5003;64145;55.060;73.168;2023-02-28T11:04:31;6.25;6.25;3.00
73825;PMS5003;64145;55.060;73.168;2023-02-28T11:07:16;7.00;7.00;3.50
73825;PMS5003;64145;55.060;73.168;2023-02-28T11:09:45;7.75;7.00;3.00
73825;PMS5003;64145;55.060;73.168;2023-02-28T11:12:24;6.00;5.75;3.50
73825;PMS5003;64145;55.060;73.168;2023-02-28T11:14:57;7.50;7.50;4.00
73825;PMS5003;64145;55.060;73.168;2023-02-28T11:17:29;8.00;8.00;4.00
73825;PMS5003;64145;55.060;73.168;2023-02-28T11:20:05;8.00;7.00;3.00
73825;PMS5003;64145;55.060;73.168;2023-02-28T11:22:43;7.00;7.00;4.00
73825;PMS5003;64145;55.060;73.168;2023-02-28T11:25:31;11.00;10.00;4.00
73825;PMS5003;64145;55.060;73.168;2023-02-28T11:28:01;10.00;7.00;3.00
73825;PMS5003;64145;55.060;73.168;2023-02-28T11:32:57;7.00;7.00;3.00
73825;PMS5003;64145;55.060;73.168;2023-02-28T11:35:27;7.00;7.00;3.00
73825;PMS5003;64145;55.060;73.168;2023-02-28T11:37:55;8.00;6.25;3.00
73825;PMS5003;64145;55.060;73.168;2023-02-28T11:40:36;6.25;5.00;3.00
73825;PMS5003;64145;55.060;73.168;2023-02-28T11:46:17;6.00;6.00;3.00
73825;PMS5003;64145;55.060;73.168;2023-02-28T11:51:24;8.00;6.00;3.00
73825;PMS5003;64145;55.060;73.168;2023-02-28T11:56:52;10.00;7.00;5.00
73825;PMS5003;64145;55.060;73.168;2023-02-28T12:07:19;7.00;6.00;3.00
73825;PMS5003;64145;55.060;73.168;2023-02-28T12:23:04;8.00;7.00;2.33
73825;PMS5003;64145;55.060;73.168;2023-02-28T12:28:08;7.00;6.00;3.00
73825;PMS5003;64145;55.060;73.168;2023-02-28T12:30:35;9.00;8.00;2.50
73825;PMS5003;64145;55.060;73.168;2023-02-28T12:33:06;7.75;6.75;3.00
73825;PMS5003;64145;55.060;73.168;2023-02-28T12:35:43;5.00;3.00;1.25
73825;PMS5003;64145;55.060;73.168;2023-02-28T12:38:10;6.00;3.75;3.00
73825;PMS5003;64145;55.060;73.168;2023-02-28T12:40:52;6.00;6.00;2.00
73825;PMS5003;64145;55.060;73.168;2023-02-28T12:43:25;7.00;6.00;2.00
73825;PMS5003;64145;55.060;73.168;2023-02-28T12:46:14;4.25;4.00;2.25
73825;PMS5003;64145;55.060;73.168;2023-02-28T12:48:52;3.00;3.00;0.75
73825;PMS5003;64145;55.060;73.168;2023-02-28T12:51:22;5.25;5.25;1.50
73825;PMS5003;64145;55.060;73.168;2023-02-28T12:56:47;3.75;3.75;1.00
73825;PMS5003;64145;55.060;73.168;2023-02-28T12:59:27;4.25;4.25;2.00
73825;PMS5003;64145;55.060;73.168;2023-02-28T13:02:02;3.00;2.00;1.00
73825;PMS5003;64145;55.060;73.168;2023-02-28T13:09:59;5.75;4.00;1.00
73825;PMS5003;64145;55.060;73.168;2023-02-28T13:12:25;6.00;4.75;2.75
73825;PMS5003;64145;55.060;73.168;2023-02-28T13:15:01;7.00;5.25;3.00
73825;PMS5003;64145;55.060;73.168;2023-02-28T13:17:27;5.25;5.00;3.00
73825;PMS5003;64145;55.060;73.168;2023-02-28T13:19:56;4.00;4.00;2.00
73825;PMS5003;64145;55.060;73.168;2023-02-28T13:24:51;6.25;6.00;3.00
73825;PMS5003;64145;55.060;73.168;2023-02-28T13:27:22;7.00;6.00;3.00
73825;PMS5003;64145;55.060;73.168;2023-02-28T13:29:51;6.75;6.25;3.00
73825;PMS5003;64145;55.060;73.168;2023-02-28T13:32:31;7.00;6.00;2.50
73825;PMS5003;64145;55.060;73.168;2023-02-28T13:39:58;7.00;7.00;3.00
73825;PMS5003;64145;55.060;73.168;2023-02-28T13:47:23;5.00;5.00;3.00
73825;PMS5003;64145;55.060;73.168;2023-02-28T13:49:49;4.50;4.25;3.00
73825;PMS5003;64145;55.060;73.168;2023-02-28T13:52:17;5.00;5.00;3.00
73825;PMS5003;64145;55.060;73.168;2023-02-28T13:57:47;7.00;5.75;3.00
73825;PMS5003;64145;55.060;73.168;2023-02-28T14:05:31;6.75;6.00;2.00
73825;PMS5003;64145;55.060;73.168;2023-02-28T14:08:12;5.50;4.75;2.00
73825;PMS5003;64145;55.060;73.168;2023-02-28T14:10:45;6.00;5.25;3.00
73825;PMS5003;64145;55.060;73.168;2023-02-28T14:15:56;7.00;7.00;3.00
73825;PMS5003;64145;55.060;73.168;2023-02-28T14:18:23;8.00;8.00;3.00
73825;PMS5003;64145;55.060;73.168;2023-02-28T14:20:57;7.25;7.25;3.00
73825;PMS5003;64145;55.060;73.168;2023-02-28T14:26:17;7.00;6.00;1.75
73825;PMS5003;64145;55.060;73.168;2023-02-28T14:29:00;7.00;5.25;3.00
73825;PMS5003;64145;55.060;73.168;2023-02-28T14:31:29;7.00;7.00;3.00
73825;PMS5003;64145;55.060;73.168;2023-02-28T14:34:25;7.25;7.00;3.00
73825;PMS5003;64145;55.060;73.168;2023-02-28T14:37:01;8.50;6.00;2.00
73825;PMS5003;64145;55.060;73.168;2023-02-28T14:39:28;5.50;4.75;2.00
73825;PMS5003;64145;55.060;73.168;2023-02-28T14:41:57;6.00;5.00;1.00
73825;PMS5003;64145;55.060;73.168;2023-02-28T14:44:30;6.25;5.00;3.00
73825;PMS5003;64145;55.060;73.168;2023-02-28T14:47:00;7.00;6.00;3.00
73825;PMS5003;64145;55.060;73.168;2023-02-28T14:49:37;7.00;6.50;4.00
73825;PMS5003;64145;55.060;73.168;2023-02-28T14:54:39;6.00;6.00;3.00
73825;PMS5003;64145;55.060;73.168;2023-02-28T14:57:05;5.00;5.00;2.00
73825;PMS5003;64145;55.060;73.168;2023-02-28T14:59:32;4.25;4.00;2.00
73825;PMS5003;64145;55.060;73.168;2023-02-28T15:04:52;7.00;6.00;3.00
73825;PMS5003;64145;55.060;73.168;2023-02-28T15:07:28;6.75;5.75;3.00
73825;PMS5003;64145;55.060;73.168;2023-02-28T15:10:11;5.33;5.00;3.00
73825;PMS5003;64145;55.060;73.168;2023-02-28T15:12:37;7.00;5.00;1.00
73825;PMS5003;64145;55.060;73.168;2023-02-28T15:15:04;6.50;4.00;2.25
73825;PMS5003;64145;55.060;73.168;2023-02-28T15:17:30;4.75;4.00;1.00
73825;PMS5003;64145;55.060;73.168;2023-02-28T15:19:56;6.00;6.00;2.00
73825;PMS5003;64145;55.060;73.168;2023-02-28T15:22:34;8.00;7.25;4.00
73825;PMS5003;64145;55.060;73.168;2023-02-28T15:25:01;9.00;8.50;3.00
73825;PMS5003;64145;55.060;73.168;2023-02-28T15:27:29;7.75;7.00;3.00
73825;PMS5003;64145;55.060;73.168;2023-02-28T15:29:58;7.00;5.25;3.00
73825;PMS5003;64145;55.060;73.168;2023-02-28T15:34:50;5.00;4.25;2.00
73825;PMS5003;64145;55.060;73.168;2023-02-28T15:37:26;8.00;7.00;3.00
73825;PMS5003;64145;55.060;73.168;2023-02-28T15:39:53;8.75;7.00;3.00
73825;PMS5003;64145;55.060;73.168;2023-02-28T15:42:27;7.00;7.00;3.00
73825;PMS5003;64145;55.060;73.168;2023-02-28T15:45:03;7.75;6.50;3.00
73825;PMS5003;64145;55.060;73.168;2023-02-28T15:47:39;7.00;6.00;3.00
73825;PMS5003;64145;55.060;73.168;2023-02-28T15:50:16;6.75;6.25;1.75
73825;PMS5003;64145;55.060;73.168;2023-02-28T15:52:42;7.00;6.00;3.00
73825;PMS5003;64145;55.060;73.168;2023-02-28T15:55:24;11.75;11.00;5.25
73825;PMS5003;64145;55.060;73.168;2023-02-28T15:57:52;10.50;9.25;3.25
73825;PMS5003;64145;55.060;73.168;2023-02-28T16:00:20;11.00;10.50;5.25
73825;PMS5003;64145;55.060;73.168;2023-02-28T16:02:51;11.00;8.25;3.00
73825;PMS5003;64145;55.060;73.168;2023-02-28T16:05:35;11.00;10.33;4.00
73825;PMS5003;64145;55.060;73.168;2023-02-28T16:08:06;10.00;8.75;3.50
73825;PMS5003;64145;55.060;73.168;2023-02-28T16:10:36;11.50;10.25;4.25
73825;PMS5003;64145;55.060;73.168;2023-02-28T16:13:08;14.00;11.25;4.25
73825;PMS5003;64145;55.060;73.168;2023-02-28T16:15:37;10.00;7.00;2.25
73825;PMS5003;64145;55.060;73.168;2023-02-28T16:18:08;10.50;7.50;3.75
73825;PMS5003;64145;55.060;73.168;2023-02-28T16:20:35;11.75;9.75;3.00
73825;PMS5003;64145;55.060;73.168;2023-02-28T16:23:00;9.33;8.33;3.33
73825;PMS5003;64145;55.060;73.168;2023-02-28T16:25:41;5.00;4.75;3.00
73825;PMS5003;64145;55.060;73.168;2023-02-28T16:28:08;5.50;3.75;1.00
73825;PMS5003;64145;55.060;73.168;2023-02-28T16:30:37;9.00;8.25;5.00
73825;PMS5003;64145;55.060;73.168;2023-02-28T16:33:03;11.00;11.00;4.00
73825;PMS5003;64145;55.060;73.168;2023-02-28T16:35:28;11.00;8.67;4.00
73825;PMS5003;64145;55.060;73.168;2023-02-28T16:38:04;10.00;8.00;4.00
73825;PMS5003;64145;55.060;73.168;2023-02-28T16:40:31;9.00;7.00;3.00
73825;PMS5003;64145;55.060;73.168;2023-02-28T16:43:05;10.50;7.00;3.00
73825;PMS5003;64145;55.060;73.168;2023-02-28T16:45:36;12.00;9.00;3.00